Time;durP1;ratioP1;P1;durP2;ratioP2;P2;SDS_P1;SDS_P2;PMS_P1;PMS_P2;Temp;Humidity;BMP_temperature;BMP_pressure;BME280_temperature;BME280_humidity;BME280_pressure;Samples;Min_cycle;Max_cycle;Signal;HPM_P1;HPM_P2
2022/09/28 00:01:39;;;;;;;16.77;11.13;;;;;;;;;;5033547;28;20272;-68
2022/09/28 00:04:05;;;;;;;12.27;10.30;;;;;;;;;;5029861;28;20232;-68
2022/09/28 00:06:31;;;;;;;14.33;10.50;;;;;;;;;;5036630;28;20242;-68
2022/09/28 00:08:57;;;;;;;14.27;11.07;;;;;;;;;;5028665;28;20593;-68
2022/09/28 00:11:26;;;;;;;13.65;9.88;;;;;;;;;;5029687;28;20499;-68
2022/09/28 00:13:55;;;;;;;16.17;9.97;;;;;;;;;;5038475;28;20221;-68
2022/09/28 00:16:24;;;;;;;14.13;10.83;;;;;;;;;;5031866;28;20598;-68
2022/09/28 00:18:50;;;;;;;12.80;10.25;;;;;;;;;;5030741;28;20186;-68
2022/09/28 00:21:18;;;;;;;11.77;10.40;;;;;;;;;;5030015;28;20284;-68
2022/09/28 00:26:31;;;;;;;16.88;12.73;;;;;;;;;;5038549;28;20251;-68
2022/09/28 00:28:59;;;;;;;17.65;11.70;;;;;;;;;;5031455;28;20316;-68
2022/09/28 00:31:26;;;;;;;15.18;11.85;;;;;;;;;;5028855;28;20213;-68
2022/09/28 00:33:56;;;;;;;15.30;12.00;;;;;;;;;;5036414;28;20198;-68
2022/09/28 00:36:23;;;;;;;17.80;11.90;;;;;;;;;;5026758;28;20236;-68
2022/09/28 00:38:49;;;;;;;14.45;11.77;;;;;;;;;;5030748;28;20633;-68
2022/09/28 00:41:14;;;;;;;18.13;13.40;;;;;;;;;;5037854;28;20218;-68
2022/09/28 00:43:40;;;;;;;16.63;12.83;;;;;;;;;;5028988;28;20193;-68
2022/09/28 00:46:18;;;;;;;19.95;13.80;;;;;;;;;;5039279;28;20634;-68
2022/09/28 00:48:56;;;;;;;16.40;13.13;;;;;;;;;;5026943;28;20260;-68
2022/09/28 00:51:24;;;;;;;19.47;14.03;;;;;;;;;;5025716;28;20273;-68
2022/09/28 00:53:50;;;;;;;19.08;13.35;;;;;;;;;;5031706;28;20181;-68
2022/09/28 00:56:19;;;;;;;19.33;14.47;;;;;;;;;;5034451;28;20224;-67
2022/09/28 00:58:47;;;;;;;18.17;12.98;;;;;;;;;;5032185;28;20182;-68
2022/09/28 01:01:13;;;;;;;18.75;13.27;;;;;;;;;;5033546;28;20543;-68
2022/09/28 01:03:44;;;;;;;20.70;13.90;;;;;;;;;;5039135;28;20190;-68
2022/09/28 01:06:12;;;;;;;19.98;14.38;;;;;;;;;;5033460;28;20688;-68
2022/09/28 01:08:38;;;;;;;24.30;14.43;;;;;;;;;;5042435;28;20197;-68
2022/09/28 01:11:04;;;;;;;19.00;14.10;;;;;;;;;;5046062;28;20201;-68
2022/09/28 01:13:30;;;;;;;18.90;14.30;;;;;;;;;;5028768;28;20194;-68
2022/09/28 01:16:14;;;;;;;18.97;13.73;;;;;;;;;;5030184;28;20190;-68
2022/09/28 01:18:56;;;;;;;20.53;14.30;;;;;;;;;;5027269;28;20190;-68
2022/09/28 01:21:23;;;;;;;22.00;14.07;;;;;;;;;;5038032;28;20178;-68
2022/09/28 01:24:03;;;;;;;19.80;15.07;;;;;;;;;;5034384;28;20182;-68
2022/09/28 01:26:46;;;;;;;23.23;15.45;;;;;;;;;;5028224;28;20673;-68
2022/09/28 01:29:26;;;;;;;20.80;15.05;;;;;;;;;;5030774;28;20236;-68
2022/09/28 01:32:00;;;;;;;22.83;15.05;;;;;;;;;;5038587;28;20201;-68
2022/09/28 01:34:40;;;;;;;24.52;14.18;;;;;;;;;;5034698;28;20182;-68
2022/09/28 01:37:10;;;;;;;20.48;15.75;;;;;;;;;;5031859;28;20186;-68
2022/09/28 01:39:40;;;;;;;21.03;14.93;;;;;;;;;;5026942;28;20538;-68
2022/09/28 01:42:13;;;;;;;25.73;15.57;;;;;;;;;;5027380;28;20194;-68
2022/09/28 01:44:43;;;;;;;17.97;14.33;;;;;;;;;;5031602;28;20645;-68
2022/09/28 01:47:12;;;;;;;18.43;13.87;;;;;;;;;;5029041;28;20610;-68
2022/09/28 01:49:46;;;;;;;20.60;14.77;;;;;;;;;;5031260;28;20263;-68
2022/09/28 01:52:24;;;;;;;23.90;14.67;;;;;;;;;;5030672;28;20608;-68
2022/09/28 01:55:00;;;;;;;20.35;14.80;;;;;;;;;;5034443;28;20180;-68
2022/09/28 01:57:36;;;;;;;21.50;15.80;;;;;;;;;;5034766;28;20189;-68
2022/09/28 02:00:05;;;;;;;22.58;15.35;;;;;;;;;;5034183;28;20227;-69
2022/09/28 02:02:36;;;;;;;22.00;14.33;;;;;;;;;;5030539;28;20186;-68
2022/09/28 02:05:13;;;;;;;22.10;15.55;;;;;;;;;;5038385;28;20178;-70
2022/09/28 02:07:50;;;;;;;23.27;16.25;;;;;;;;;;5042987;28;20181;-70
2022/09/28 02:10:23;;;;;;;22.52;15.55;;;;;;;;;;5050061;28;20219;-70
2022/09/28 02:12:55;;;;;;;21.63;14.90;;;;;;;;;;5040877;28;20204;-70
2022/09/28 02:15:36;;;;;;;24.70;16.80;;;;;;;;;;5039283;28;20189;-70
2022/09/28 02:18:01;;;;;;;19.30;13.77;;;;;;;;;;5041586;28;20268;-70
2022/09/28 02:20:29;;;;;;;22.60;15.00;;;;;;;;;;5032164;28;20700;-70
2022/09/28 02:22:56;;;;;;;19.87;13.80;;;;;;;;;;5033309;28;20194;-70
2022/09/28 02:25:35;;;;;;;22.53;15.53;;;;;;;;;;5039154;28;20651;-70
2022/09/28 02:28:08;;;;;;;22.17;15.38;;;;;;;;;;5042364;28;20190;-68
2022/09/28 02:30:37;;;;;;;25.47;16.27;;;;;;;;;;5029585;28;20229;-70
2022/09/28 02:33:11;;;;;;;24.43;16.67;;;;;;;;;;5037700;28;20197;-69
2022/09/28 02:35:39;;;;;;;24.37;16.30;;;;;;;;;;5028952;28;20630;-68
2022/09/28 02:38:05;;;;;;;25.00;16.30;;;;;;;;;;5032125;28;20275;-70
2022/09/28 02:40:33;;;;;;;27.30;16.10;;;;;;;;;;5039795;28;20661;-68
2022/09/28 02:43:10;;;;;;;24.27;16.13;;;;;;;;;;5047121;28;20196;-70
2022/09/28 02:45:57;;;;;;;24.00;16.10;;;;;;;;;;5030740;28;20316;-70
2022/09/28 02:48:23;;;;;;;23.47;16.50;;;;;;;;;;5036813;28;20482;-70
2022/09/28 02:51:29;;;;;;;22.73;15.07;;;;;;;;;;5039565;28;20224;-68
2022/09/28 02:54:25;;;;;;;24.43;17.17;;;;;;;;;;5025305;28;20601;-70
2022/09/28 02:56:53;;;;;;;22.37;15.90;;;;;;;;;;5035393;28;20188;-68
2022/09/28 02:59:41;;;;;;;24.97;16.73;;;;;;;;;;5040208;28;20570;-70
2022/09/28 03:02:12;;;;;;;25.67;17.13;;;;;;;;;;5039794;28;20477;-68
2022/09/28 03:05:05;;;;;;;23.27;16.53;;;;;;;;;;5047717;28;20366;-70
2022/09/28 03:08:00;;;;;;;21.93;14.97;;;;;;;;;;5030155;28;20182;-68
2022/09/28 03:10:42;;;;;;;29.13;16.47;;;;;;;;;;5045528;28;20212;-68
2022/09/28 03:13:08;;;;;;;23.77;16.63;;;;;;;;;;5042680;28;20189;-69
2022/09/28 03:15:34;;;;;;;26.17;17.33;;;;;;;;;;5043241;28;20506;-69
2022/09/28 03:18:00;;;;;;;23.77;17.53;;;;;;;;;;5031784;28;20194;-68
2022/09/28 03:20:27;;;;;;;27.97;17.73;;;;;;;;;;5029139;28;20480;-69
2022/09/28 03:22:53;;;;;;;24.83;18.03;;;;;;;;;;5036888;28;20659;-68
2022/09/28 03:25:18;;;;;;;28.00;19.03;;;;;;;;;;5034493;28;20182;-70
2022/09/28 03:27:44;;;;;;;27.83;18.53;;;;;;;;;;5043435;28;20188;-70
2022/09/28 03:30:10;;;;;;;27.57;18.23;;;;;;;;;;5035105;28;20748;-69
2022/09/28 03:32:36;;;;;;;26.97;18.33;;;;;;;;;;5032922;28;20206;-70
2022/09/28 03:35:03;;;;;;;28.07;19.27;;;;;;;;;;5028801;28;20250;-70
2022/09/28 03:37:28;;;;;;;28.87;19.43;;;;;;;;;;5041834;28;20284;-70
2022/09/28 03:39:54;;;;;;;35.53;20.23;;;;;;;;;;5045272;28;20262;-70
2022/09/28 03:42:19;;;;;;;31.83;19.40;;;;;;;;;;5040068;28;20250;-70
2022/09/28 03:44:44;;;;;;;31.03;19.87;;;;;;;;;;5032955;28;20308;-70
2022/09/28 03:47:10;;;;;;;33.23;21.30;;;;;;;;;;5032228;28;20552;-70
2022/09/28 03:49:35;;;;;;;30.27;19.77;;;;;;;;;;5031292;28;20685;-70
2022/09/28 03:52:02;;;;;;;33.73;19.90;;;;;;;;;;5034296;28;20218;-70
2022/09/28 03:54:27;;;;;;;32.57;20.67;;;;;;;;;;5031498;28;20217;-70
2022/09/28 03:56:53;;;;;;;31.27;20.57;;;;;;;;;;5030533;28;20679;-70
2022/09/28 03:59:18;;;;;;;27.57;19.47;;;;;;;;;;5031728;28;20171;-70
2022/09/28 04:01:43;;;;;;;28.73;19.27;;;;;;;;;;5031466;28;20193;-70
2022/09/28 04:04:12;;;;;;;33.60;20.03;;;;;;;;;;5045393;28;20186;-68
2022/09/28 04:06:37;;;;;;;34.40;21.30;;;;;;;;;;5029959;28;20677;-70
2022/09/28 04:09:03;;;;;;;32.93;20.63;;;;;;;;;;5035611;28;20212;-70
2022/09/28 04:11:28;;;;;;;43.63;21.83;;;;;;;;;;5029918;28;20181;-70
2022/09/28 04:13:54;;;;;;;33.70;21.33;;;;;;;;;;5032354;28;20563;-70
2022/09/28 04:16:19;;;;;;;40.13;21.73;;;;;;;;;;5033908;28;20182;-70
2022/09/28 04:18:46;;;;;;;34.27;21.03;;;;;;;;;;5033328;28;20264;-70
2022/09/28 04:21:14;;;;;;;37.37;22.30;;;;;;;;;;5035416;28;20509;-70
2022/09/28 04:23:40;;;;;;;35.53;21.67;;;;;;;;;;5035403;28;20174;-70
2022/09/28 04:26:15;;;;;;;40.33;22.10;;;;;;;;;;5028249;28;20546;-70
2022/09/28 04:31:24;;;;;;;33.50;20.87;;;;;;;;;;5030217;28;20232;-70
2022/09/28 04:33:50;;;;;;;41.90;22.90;;;;;;;;;;5033916;28;20189;-70
2022/09/28 04:36:16;;;;;;;40.30;23.20;;;;;;;;;;5042672;28;20235;-70
2022/09/28 04:38:42;;;;;;;33.53;21.13;;;;;;;;;;5044248;28;20225;-70
2022/09/28 04:41:07;;;;;;;34.47;21.63;;;;;;;;;;5035229;28;20236;-70
2022/09/28 04:43:32;;;;;;;35.80;21.17;;;;;;;;;;5034301;28;20198;-70
2022/09/28 04:45:59;;;;;;;31.83;20.87;;;;;;;;;;5033406;28;20185;-70
2022/09/28 04:48:25;;;;;;;34.07;20.87;;;;;;;;;;5027019;28;20187;-70
2022/09/28 04:50:54;;;;;;;36.07;21.87;;;;;;;;;;5037448;28;20652;-70
2022/09/28 04:53:20;;;;;;;34.73;20.90;;;;;;;;;;5033196;28;20188;-70
2022/09/28 04:55:55;;;;;;;33.37;20.17;;;;;;;;;;5033229;28;20213;-71
2022/09/28 04:58:21;;;;;;;33.70;20.07;;;;;;;;;;5041592;28;20560;-70
2022/09/28 05:00:48;;;;;;;36.27;22.60;;;;;;;;;;5045973;28;20185;-70
2022/09/28 05:03:13;;;;;;;37.43;22.03;;;;;;;;;;5029311;28;20243;-70
2022/09/28 05:05:43;;;;;;;36.53;21.43;;;;;;;;;;5034832;28;20649;-69
2022/09/28 05:08:08;;;;;;;36.00;21.30;;;;;;;;;;5030070;28;20344;-70
2022/09/28 05:10:34;;;;;;;36.97;22.50;;;;;;;;;;5036469;28;20703;-69
2022/09/28 05:13:00;;;;;;;37.93;21.13;;;;;;;;;;5027978;28;20212;-68
2022/09/28 05:15:26;;;;;;;37.57;22.23;;;;;;;;;;5033888;28;20261;-70
2022/09/28 05:17:52;;;;;;;37.70;22.00;;;;;;;;;;5040310;28;20265;-70
2022/09/28 05:20:17;;;;;;;35.83;21.73;;;;;;;;;;5043356;28;20185;-70
2022/09/28 05:22:42;;;;;;;38.27;21.80;;;;;;;;;;5044579;28;20732;-70
2022/09/28 05:25:08;;;;;;;29.23;19.27;;;;;;;;;;5035746;28;20273;-72
2022/09/28 05:27:33;;;;;;;28.03;18.50;;;;;;;;;;5031389;28;20728;-69
2022/09/28 05:29:59;;;;;;;34.77;19.17;;;;;;;;;;5026467;28;20233;-68
2022/09/28 05:32:24;;;;;;;32.43;19.03;;;;;;;;;;5037240;28;20202;-69
2022/09/28 05:34:49;;;;;;;29.83;18.20;;;;;;;;;;5034181;28;20642;-69
2022/09/28 05:37:15;;;;;;;30.27;19.10;;;;;;;;;;5041020;28;20193;-69
2022/09/28 05:39:40;;;;;;;30.20;19.57;;;;;;;;;;5040093;28;20196;-69
2022/09/28 05:42:06;;;;;;;27.73;18.30;;;;;;;;;;5041367;28;20586;-69
2022/09/28 05:44:32;;;;;;;29.17;19.03;;;;;;;;;;5038679;28;20186;-69
2022/09/28 05:46:57;;;;;;;32.50;18.17;;;;;;;;;;5033525;28;20209;-70
2022/09/28 05:49:22;;;;;;;29.43;18.17;;;;;;;;;;5035374;28;20206;-69
2022/09/28 05:51:48;;;;;;;28.63;17.43;;;;;;;;;;5034545;28;20186;-69
2022/09/28 05:54:13;;;;;;;30.57;17.87;;;;;;;;;;5039821;28;20190;-69
2022/09/28 05:56:38;;;;;;;26.57;16.83;;;;;;;;;;5037334;28;20181;-70
2022/09/28 05:59:05;;;;;;;30.50;18.33;;;;;;;;;;5045147;28;20186;-69
2022/09/28 06:01:30;;;;;;;26.87;16.43;;;;;;;;;;5039602;28;20240;-70
2022/09/28 06:03:55;;;;;;;24.63;15.67;;;;;;;;;;5034186;28;20181;-69
2022/09/28 06:06:21;;;;;;;29.40;17.10;;;;;;;;;;5031137;28;20217;-69
2022/09/28 06:08:47;;;;;;;25.40;15.97;;;;;;;;;;5037229;28;20185;-69
2022/09/28 06:11:13;;;;;;;28.57;17.80;;;;;;;;;;5032081;28;20637;-69
2022/09/28 06:13:41;;;;;;;28.70;16.97;;;;;;;;;;5045192;28;20193;-69
2022/09/28 06:16:07;;;;;;;24.60;15.90;;;;;;;;;;5048503;28;20188;-69
2022/09/28 06:18:33;;;;;;;26.23;16.53;;;;;;;;;;5038488;28;20713;-69
2022/09/28 06:20:58;;;;;;;24.33;16.33;;;;;;;;;;5040212;28;20174;-69
2022/09/28 06:23:23;;;;;;;29.90;17.37;;;;;;;;;;5032652;28;20600;-71
2022/09/28 06:25:49;;;;;;;26.30;15.53;;;;;;;;;;5040371;28;20187;-69
2022/09/28 06:28:14;;;;;;;25.50;15.27;;;;;;;;;;5040115;28;20178;-69
2022/09/28 06:30:41;;;;;;;24.93;15.83;;;;;;;;;;5041710;28;20225;-69
2022/09/28 06:33:11;;;;;;;26.43;15.60;;;;;;;;;;5032555;28;20251;-69
2022/09/28 06:35:36;;;;;;;25.40;15.97;;;;;;;;;;5034081;28;20178;-69
2022/09/28 06:38:02;;;;;;;28.00;16.67;;;;;;;;;;5027003;28;20611;-69
2022/09/28 06:40:28;;;;;;;30.40;16.90;;;;;;;;;;5031772;28;20186;-69
2022/09/28 06:42:55;;;;;;;27.27;16.77;;;;;;;;;;5038955;28;20207;-69
2022/09/28 06:45:24;;;;;;;22.73;15.50;;;;;;;;;;5039163;28;20478;-69
2022/09/28 06:47:57;;;;;;;24.87;16.13;;;;;;;;;;5030287;28;20186;-70
2022/09/28 06:50:33;;;;;;;27.07;16.63;;;;;;;;;;5032753;28;20297;-69
2022/09/28 06:53:00;;;;;;;23.63;16.17;;;;;;;;;;5033644;28;20614;-69
2022/09/28 06:55:26;;;;;;;25.90;16.17;;;;;;;;;;5035959;28;20642;-69
2022/09/28 06:58:11;;;;;;;24.77;15.03;;;;;;;;;;5034705;28;20206;-69
2022/09/28 07:00:38;;;;;;;23.63;14.50;;;;;;;;;;5039302;28;20178;-69
2022/09/28 07:03:07;;;;;;;22.00;15.20;;;;;;;;;;5035156;28;20192;-69
2022/09/28 07:05:35;;;;;;;20.87;14.07;;;;;;;;;;5031781;28;20193;-69
2022/09/28 07:08:02;;;;;;;24.63;14.50;;;;;;;;;;5041524;28;20264;-69
2022/09/28 07:10:29;;;;;;;23.40;14.47;;;;;;;;;;5036222;28;20198;-69
2022/09/28 07:12:56;;;;;;;23.10;14.27;;;;;;;;;;5032469;28;20181;-69
2022/09/28 07:15:22;;;;;;;24.40;14.82;;;;;;;;;;5043292;28;20720;-69
2022/09/28 07:17:47;;;;;;;26.13;15.17;;;;;;;;;;5032286;28;20422;-69
2022/09/28 07:20:13;;;;;;;24.88;15.00;;;;;;;;;;5035461;28;20182;-70
2022/09/28 07:22:39;;;;;;;24.10;16.33;;;;;;;;;;5030282;28;20188;-70
2022/09/28 07:25:05;;;;;;;27.60;15.05;;;;;;;;;;5029417;28;20193;-70
2022/09/28 07:27:31;;;;;;;22.80;14.68;;;;;;;;;;5028801;28;20521;-69
2022/09/28 07:29:57;;;;;;;25.02;14.48;;;;;;;;;;5037007;28;20327;-69
2022/09/28 07:32:23;;;;;;;19.15;13.18;;;;;;;;;;5031062;28;20210;-69
2022/09/28 07:34:49;;;;;;;20.67;14.55;;;;;;;;;;5028803;28;20182;-69
2022/09/28 07:37:17;;;;;;;26.02;14.10;;;;;;;;;;5042026;28;20227;-69
2022/09/28 07:42:28;;;;;;;22.02;14.45;;;;;;;;;;5029915;28;20291;-69
2022/09/28 07:44:55;;;;;;;19.73;13.15;;;;;;;;;;5035300;28;20643;-69
2022/09/28 07:47:25;;;;;;;19.25;13.55;;;;;;;;;;5035104;28;20204;-69
2022/09/28 07:49:53;;;;;;;19.38;12.35;;;;;;;;;;5047966;28;20294;-69
2022/09/28 07:52:18;;;;;;;14.43;10.48;;;;;;;;;;5047398;28;20185;-69
2022/09/28 07:54:43;;;;;;;14.60;10.80;;;;;;;;;;5043053;28;20667;-69
2022/09/28 07:57:09;;;;;;;15.20;11.02;;;;;;;;;;5043231;28;20251;-69
2022/09/28 07:59:34;;;;;;;18.08;11.07;;;;;;;;;;5036496;28;20626;-69
2022/09/28 08:01:59;;;;;;;16.75;11.07;;;;;;;;;;5033308;28;20210;-69
2022/09/28 08:04:24;;;;;;;17.80;11.52;;;;;;;;;;5041893;28;20273;-69
2022/09/28 08:06:50;;;;;;;17.00;10.50;;;;;;;;;;5043120;28;20276;-69
2022/09/28 08:09:15;;;;;;;16.00;9.88;;;;;;;;;;5043923;28;20209;-69
2022/09/28 08:11:42;;;;;;;16.20;10.02;;;;;;;;;;5040958;28;20294;-69
2022/09/28 08:14:09;;;;;;;13.15;9.90;;;;;;;;;;5042454;28;20637;-69
2022/09/28 08:16:35;;;;;;;15.32;9.75;;;;;;;;;;5043277;28;20177;-69
2022/09/28 08:19:00;;;;;;;17.13;9.55;;;;;;;;;;5047581;28;20228;-69
2022/09/28 08:21:44;;;;;;;14.65;9.80;;;;;;;;;;5035327;28;20244;-69
2022/09/28 08:24:11;;;;;;;12.35;9.40;;;;;;;;;;5037936;28;20230;-69
2022/09/28 08:26:36;;;;;;;15.18;9.32;;;;;;;;;;5046938;28;20410;-69
2022/09/28 08:29:02;;;;;;;12.95;8.80;;;;;;;;;;5036446;28;20737;-68
2022/09/28 08:31:29;;;;;;;9.77;8.00;;;;;;;;;;5029711;28;20240;-69
2022/09/28 08:33:56;;;;;;;10.93;7.85;;;;;;;;;;5028738;28;20244;-69
2022/09/28 08:36:22;;;;;;;11.60;9.40;;;;;;;;;;5031470;28;20182;-69
2022/09/28 08:38:48;;;;;;;12.63;8.52;;;;;;;;;;5032056;28;20178;-69
2022/09/28 08:41:38;;;;;;;16.85;8.10;;;;;;;;;;5032482;28;20728;-69
2022/09/28 08:44:22;;;;;;;10.57;7.93;;;;;;;;;;5035434;28;20614;-69
2022/09/28 08:46:57;;;;;;;11.48;8.40;;;;;;;;;;5027450;28;20669;-68
2022/09/28 08:49:37;;;;;;;15.40;8.32;;;;;;;;;;5033901;28;20178;-68
2022/09/28 08:52:09;;;;;;;11.52;7.90;;;;;;;;;;5038810;28;20621;-69
2022/09/28 08:55:00;;;;;;;10.40;7.15;;;;;;;;;;5034601;28;20178;-68
2022/09/28 08:57:49;;;;;;;11.95;8.48;;;;;;;;;;5030897;28;20184;-69
2022/09/28 09:00:32;;;;;;;11.02;7.72;;;;;;;;;;5034473;28;20502;-69
2022/09/28 09:02:58;;;;;;;8.90;7.43;;;;;;;;;;5034445;28;20200;-69
2022/09/28 09:05:45;;;;;;;9.88;6.93;;;;;;;;;;5031694;28;20626;-68
2022/09/28 09:08:32;;;;;;;8.98;6.90;;;;;;;;;;5033839;28;20301;-69
2022/09/28 09:11:11;;;;;;;10.60;6.80;;;;;;;;;;5036597;28;20250;-69
2022/09/28 09:13:53;;;;;;;9.45;6.75;;;;;;;;;;5035825;28;20177;-69
2022/09/28 09:16:45;;;;;;;10.88;7.38;;;;;;;;;;5036658;28;20224;-68
2022/09/28 09:19:21;;;;;;;10.25;7.22;;;;;;;;;;5038580;28;20185;-69
2022/09/28 09:22:13;;;;;;;8.68;6.22;;;;;;;;;;5036834;28;20188;-69
2022/09/28 09:24:53;;;;;;;6.75;5.07;;;;;;;;;;5034594;28;20255;-68
2022/09/28 09:27:41;;;;;;;9.00;6.03;;;;;;;;;;5031397;28;20186;-68
2022/09/28 09:30:20;;;;;;;7.45;6.00;;;;;;;;;;5034109;28;20588;-69
2022/09/28 09:33:12;;;;;;;10.05;7.18;;;;;;;;;;5037301;28;20209;-69
2022/09/28 09:36:09;;;;;;;11.32;7.15;;;;;;;;;;5030599;28;20208;-68
2022/09/28 09:39:01;;;;;;;12.70;7.65;;;;;;;;;;5030534;28;20476;-69
2022/09/28 09:41:45;;;;;;;7.50;6.18;;;;;;;;;;5030564;28;20186;-68
2022/09/28 09:44:47;;;;;;;8.15;5.93;;;;;;;;;;5029120;28;20186;-69
2022/09/28 09:47:22;;;;;;;8.10;5.25;;;;;;;;;;5033142;28;20239;-68
2022/09/28 09:50:01;;;;;;;6.88;4.47;;;;;;;;;;5035103;28;20267;-69
2022/09/28 09:52:42;;;;;;;7.25;4.68;;;;;;;;;;5033839;28;20265;-68
2022/09/28 09:55:18;;;;;;;6.68;5.13;;;;;;;;;;5030228;28;20627;-67
2022/09/28 09:57:50;;;;;;;5.20;4.55;;;;;;;;;;5037062;28;20207;-68
2022/09/28 10:00:16;;;;;;;6.00;4.68;;;;;;;;;;5030125;28;20726;-68
2022/09/28 10:02:45;;;;;;;7.35;4.18;;;;;;;;;;5030786;28;20189;-68
2022/09/28 10:05:10;;;;;;;10.63;4.50;;;;;;;;;;5033517;28;20690;-68
2022/09/28 10:07:42;;;;;;;8.80;4.30;;;;;;;;;;5030074;28;20186;-68
2022/09/28 10:10:22;;;;;;;7.65;3.80;;;;;;;;;;5030231;28;20543;-68
2022/09/28 10:12:50;;;;;;;5.57;3.65;;;;;;;;;;5032285;28;20272;-68
2022/09/28 10:15:20;;;;;;;8.27;4.07;;;;;;;;;;5030734;28;20591;-68
2022/09/28 10:17:46;;;;;;;6.18;3.65;;;;;;;;;;5036670;28;20192;-68
2022/09/28 10:20:15;;;;;;;6.47;4.30;;;;;;;;;;5042971;28;20170;-69
2022/09/28 10:22:42;;;;;;;6.28;4.63;;;;;;;;;;5042013;28;20193;-68
2022/09/28 10:25:09;;;;;;;7.47;4.10;;;;;;;;;;5034819;28;20198;-68
2022/09/28 10:27:39;;;;;;;7.60;4.10;;;;;;;;;;5033784;28;20540;-69
2022/09/28 10:30:21;;;;;;;5.47;4.22;;;;;;;;;;5031945;28;20556;-66
2022/09/28 10:32:49;;;;;;;5.18;4.18;;;;;;;;;;5029684;28;20202;-68
2022/09/28 10:35:17;;;;;;;6.18;4.03;;;;;;;;;;5029889;28;20178;-68
2022/09/28 10:38:09;;;;;;;6.15;3.30;;;;;;;;;;5027775;28;20186;-68
2022/09/28 10:40:43;;;;;;;5.75;3.63;;;;;;;;;;5029487;28;20265;-69
2022/09/28 10:43:25;;;;;;;4.72;3.38;;;;;;;;;;5046291;28;20177;-69
2022/09/28 10:46:13;;;;;;;3.55;3.25;;;;;;;;;;5031579;28;20273;-69
2022/09/28 10:49:08;;;;;;;5.57;3.55;;;;;;;;;;5037948;28;20225;-68
2022/09/28 10:51:48;;;;;;;6.45;3.47;;;;;;;;;;5034590;28;20277;-68
2022/09/28 10:54:16;;;;;;;3.47;2.90;;;;;;;;;;5048221;28;20189;-68
2022/09/28 10:56:42;;;;;;;5.97;3.13;;;;;;;;;;5033247;28;20560;-69
2022/09/28 10:59:40;;;;;;;4.70;2.47;;;;;;;;;;5040921;28;20178;-69
2022/09/28 11:02:19;;;;;;;3.15;2.78;;;;;;;;;;5040250;28;20185;-68
2022/09/28 11:04:51;;;;;;;5.90;3.03;;;;;;;;;;5035545;28;20189;-69
2022/09/28 11:07:44;;;;;;;3.88;3.05;;;;;;;;;;5046983;28;20177;-68
2022/09/28 11:10:20;;;;;;;3.75;3.20;;;;;;;;;;5033543;28;20206;-68
2022/09/28 11:12:46;;;;;;;4.10;1.98;;;;;;;;;;5040255;28;20209;-68
2022/09/28 11:15:30;;;;;;;2.20;1.80;;;;;;;;;;5027678;28;20186;-68
2022/09/28 11:17:55;;;;;;;2.75;2.10;;;;;;;;;;5028519;28;20529;-69
2022/09/28 11:20:23;;;;;;;1.77;1.58;;;;;;;;;;5026728;28;20198;-68
2022/09/28 11:22:57;;;;;;;1.95;1.73;;;;;;;;;;5028493;28;20650;-68
2022/09/28 11:25:26;;;;;;;3.20;1.83;;;;;;;;;;5029303;28;20573;-68
2022/09/28 11:27:51;;;;;;;1.38;1.17;;;;;;;;;;5048420;28;20189;-68
2022/09/28 11:30:22;;;;;;;2.42;1.50;;;;;;;;;;5049113;28;20282;-67
2022/09/28 11:32:49;;;;;;;1.90;1.70;;;;;;;;;;5029733;28;20609;-68
2022/09/28 11:35:31;;;;;;;4.40;1.88;;;;;;;;;;5040387;28;20576;-68
2022/09/28 11:38:19;;;;;;;1.80;1.58;;;;;;;;;;5037741;28;20554;-68
2022/09/28 11:40:58;;;;;;;2.70;1.65;;;;;;;;;;5046928;28;20307;-68
2022/09/28 11:43:31;;;;;;;1.50;1.40;;;;;;;;;;5032697;28;20174;-69
2022/09/28 11:46:00;;;;;;;2.28;1.73;;;;;;;;;;5030800;28;20235;-71
2022/09/28 11:48:56;;;;;;;3.42;1.83;;;;;;;;;;5040536;28;20290;-69
2022/09/28 11:51:30;;;;;;;1.95;1.48;;;;;;;;;;5044135;28;20216;-68
2022/09/28 11:54:05;;;;;;;1.30;1.20;;;;;;;;;;5048699;28;20537;-68
2022/09/28 11:56:41;;;;;;;1.60;1.50;;;;;;;;;;5042134;28;20178;-69
2022/09/28 11:59:17;;;;;;;2.25;1.02;;;;;;;;;;5037095;28;20196;-69
2022/09/28 12:01:47;;;;;;;3.05;1.20;;;;;;;;;;5029237;28;20658;-69
2022/09/28 12:04:42;;;;;;;1.30;1.13;;;;;;;;;;5036603;28;20170;-69
2022/09/28 12:07:15;;;;;;;4.20;1.23;;;;;;;;;;5045533;28;20189;-68
2022/09/28 12:09:50;;;;;;;1.92;1.10;;;;;;;;;;5037731;28;20206;-69
2022/09/28 12:12:24;;;;;;;3.13;1.20;;;;;;;;;;5027912;28;20189;-68
2022/09/28 12:14:53;;;;;;;1.50;1.38;;;;;;;;;;5028956;28;20269;-68
2022/09/28 12:17:28;;;;;;;3.00;1.20;;;;;;;;;;5031462;28;20544;-69
2022/09/28 12:20:22;;;;;;;2.22;1.25;;;;;;;;;;5028870;28;20185;-68
2022/09/28 12:23:02;;;;;;;2.08;1.35;;;;;;;;;;5035989;28;20189;-69
2022/09/28 12:25:35;;;;;;;2.00;1.40;;;;;;;;;;5033369;28;20626;-69
2022/09/28 12:28:12;;;;;;;2.35;1.40;;;;;;;;;;5028272;28;20200;-68
2022/09/28 12:30:40;;;;;;;3.72;1.90;;;;;;;;;;5028277;28;20245;-69
2022/09/28 12:33:14;;;;;;;2.03;1.50;;;;;;;;;;5043370;28;20369;-69
2022/09/28 12:36:04;;;;;;;1.65;1.55;;;;;;;;;;5032747;28;20285;-69
2022/09/28 12:39:11;;;;;;;1.45;1.30;;;;;;;;;;5030370;28;20834;-69
2022/09/28 12:41:46;;;;;;;2.20;1.05;;;;;;;;;;5028784;28;20190;-68
2022/09/28 12:44:23;;;;;;;1.45;1.08;;;;;;;;;;5027716;28;20188;-68
2022/09/28 12:47:15;;;;;;;1.67;1.20;;;;;;;;;;5028928;28;20231;-68
2022/09/28 12:50:08;;;;;;;2.47;1.30;;;;;;;;;;5029067;28;20201;-68
2022/09/28 12:52:58;;;;;;;1.50;1.08;;;;;;;;;;5048287;28;20185;-68
2022/09/28 12:55:34;;;;;;;2.10;1.20;;;;;;;;;;5036397;28;20174;-68
2022/09/28 12:58:37;;;;;;;1.33;1.20;;;;;;;;;;5044983;28;20196;-68
2022/09/28 13:01:23;;;;;;;2.58;1.00;;;;;;;;;;5037850;28;20190;-68
2022/09/28 13:04:12;;;;;;;1.65;1.08;;;;;;;;;;5030079;28;20280;-68
2022/09/28 13:07:02;;;;;;;1.10;1.00;;;;;;;;;;5031029;28;20193;-68
2022/09/28 13:09:55;;;;;;;2.72;1.05;;;;;;;;;;5037008;28;20520;-68
2022/09/28 13:12:39;;;;;;;3.72;0.90;;;;;;;;;;5029787;28;20294;-68
2022/09/28 13:15:16;;;;;;;3.40;0.70;;;;;;;;;;4332560;28;10000700;-67
2022/09/28 13:18:04;;;;;;;0.57;0.30;;;;;;;;;;5034840;28;20838;-68
2022/09/28 13:20:40;;;;;;;1.17;0.20;;;;;;;;;;5030099;28;20416;-68
2022/09/28 13:23:26;;;;;;;0.28;0.20;;;;;;;;;;5035808;28;20259;-68
2022/09/28 13:26:22;;;;;;;0.85;0.10;;;;;;;;;;5040052;28;20280;-68
2022/09/28 13:28:50;;;;;;;0.90;0.20;;;;;;;;;;5028288;28;20194;-68
2022/09/28 13:31:21;;;;;;;0.38;0.20;;;;;;;;;;5041230;28;20735;-68
2022/09/28 13:33:49;;;;;;;0.10;0.10;;;;;;;;;;5031712;28;20192;-69
2022/09/28 13:36:26;;;;;;;0.32;0.17;;;;;;;;;;5033134;28;20182;-68
2022/09/28 13:38:53;;;;;;;0.20;0.20;;;;;;;;;;5023989;28;20190;-69
2022/09/28 13:41:28;;;;;;;0.55;0.20;;;;;;;;;;5030042;28;20273;-68
2022/09/28 13:44:04;;;;;;;0.80;0.25;;;;;;;;;;5026601;28;20662;-68
2022/09/28 13:46:47;;;;;;;0.70;0.17;;;;;;;;;;5026590;28;20255;-69
2022/09/28 13:49:18;;;;;;;0.40;0.30;;;;;;;;;;5028570;28;20538;-68
2022/09/28 13:51:58;;;;;;;0.40;0.20;;;;;;;;;;5025082;28;20204;-67
2022/09/28 13:54:42;;;;;;;0.25;0.20;;;;;;;;;;5027379;28;20501;-69
2022/09/28 13:57:26;;;;;;;0.38;0.30;;;;;;;;;;5030493;28;20182;-68
2022/09/28 14:00:10;;;;;;;0.93;0.20;;;;;;;;;;5028299;28;20231;-67
2022/09/28 14:02:43;;;;;;;1.27;0.30;;;;;;;;;;5032872;28;20200;-68
2022/09/28 14:05:37;;;;;;;0.80;0.20;;;;;;;;;;5034056;28;20744;-68
2022/09/28 14:08:08;;;;;;;0.90;0.40;;;;;;;;;;5030817;28;20204;-67
2022/09/28 14:10:52;;;;;;;0.65;0.20;;;;;;;;;;5030883;28;20671;-67
2022/09/28 14:14:02;;;;;;;3.72;0.60;;;;;;;;;;5033615;28;20653;-68
2022/09/28 14:16:30;;;;;;;0.60;0.30;;;;;;;;;;5036817;28;20650;-69
2022/09/28 14:19:05;;;;;;;2.67;0.40;;;;;;;;;;5042430;28;20174;-68
2022/09/28 14:22:28;;;;;;;1.67;0.20;;;;;;;;;;5033465;28;20189;-68
2022/09/28 14:25:06;;;;;;;1.17;0.40;;;;;;;;;;5013730;28;20197;-68
2022/09/28 14:27:40;;;;;;;1.80;0.60;;;;;;;;;;5012886;28;20221;-68
2022/09/28 14:30:24;;;;;;;0.60;0.32;;;;;;;;;;5014700;28;20241;-68
2022/09/28 14:32:59;;;;;;;0.40;0.40;;;;;;;;;;5017824;28;20210;-68
2022/09/28 14:35:38;;;;;;;0.32;0.28;;;;;;;;;;5026645;28;20173;-69
2022/09/28 14:41:21;;;;;;;0.75;0.40;;;;;;;;;;5013493;28;20190;-68
2022/09/28 14:43:46;;;;;;;1.17;0.43;;;;;;;;;;5021297;28;20619;-68
2022/09/28 14:46:13;;;;;;;2.03;0.60;;;;;;;;;;5028941;28;20201;-69
2022/09/28 14:49:16;;;;;;;0.52;0.35;;;;;;;;;;5012601;28;20191;-68
2022/09/28 14:51:53;;;;;;;2.50;0.68;;;;;;;;;;5016456;28;20206;-68
2022/09/28 14:54:20;;;;;;;0.50;0.30;;;;;;;;;;5018582;28;20409;-69
2022/09/28 14:56:51;;;;;;;0.75;0.40;;;;;;;;;;5014867;28;20218;-69
2022/09/28 14:59:21;;;;;;;0.65;0.30;;;;;;;;;;5014957;28;20663;-69
2022/09/28 15:02:26;;;;;;;1.73;0.60;;;;;;;;;;5013977;28;20305;-68
2022/09/28 15:04:58;;;;;;;0.90;0.57;;;;;;;;;;5014395;28;20204;-68
2022/09/28 15:07:42;;;;;;;0.75;0.30;;;;;;;;;;5026983;28;20209;-68
2022/09/28 15:10:22;;;;;;;1.20;0.38;;;;;;;;;;5013596;28;20210;-68
2022/09/28 15:12:48;;;;;;;0.65;0.30;;;;;;;;;;5024551;28;20197;-68
2022/09/28 15:15:37;;;;;;;3.30;0.40;;;;;;;;;;5022014;28;20570;-68